Time;durP1;ratioP1;P1;durP2;ratioP2;P2;SDS_P1;SDS_P2;PMS_P1;PMS_P2;Temp;Humidity;BMP_temperature;BMP_pressure;BME280_temperature;BME280_humidity;BME280_pressure;Samples;Min_cycle;Max_cycle;Signal;HPM_P1;HPM_P2
2023/08/17 00:01:52;;;;;;;4.13;1.38;;;21.80;99.90;;;;;;4993104;28;20038;-70
2023/08/17 00:04:18;;;;;;;2.80;2.10;;;21.80;99.90;;;;;;4984896;28;20152;-70
2023/08/17 00:06:44;;;;;;;6.28;2.10;;;21.80;99.90;;;;;;4972067;28;20610;-70
2023/08/17 00:09:12;;;;;;;3.30;1.90;;;21.80;99.90;;;;;;4994610;28;20038;-70
2023/08/17 00:11:38;;;;;;;3.17;1.60;;;21.80;99.90;;;;;;4995286;28;20041;-70
2023/08/17 00:14:05;;;;;;;2.53;1.48;;;21.80;99.90;;;;;;4992508;28;20130;-69
2023/08/17 00:16:31;;;;;;;3.17;1.63;;;21.70;99.90;;;;;;4993089;28;20132;-69
2023/08/17 00:18:57;;;;;;;3.20;1.70;;;21.70;99.90;;;;;;4990854;28;20022;-70
2023/08/17 00:21:24;;;;;;;1.63;1.45;;;21.80;99.90;;;;;;4972769;28;20125;-70
2023/08/17 00:23:50;;;;;;;7.00;2.30;;;21.80;99.90;;;;;;4983535;28;20037;-70
2023/08/17 00:26:16;;;;;;;4.60;2.05;;;21.80;99.90;;;;;;4985088;28;20042;-70
2023/08/17 00:28:42;;;;;;;4.03;1.95;;;21.70;99.90;;;;;;4971799;28;20026;-70
2023/08/17 00:31:08;;;;;;;5.90;1.95;;;21.70;99.90;;;;;;4976136;28;20068;-70
2023/08/17 00:33:34;;;;;;;6.85;2.20;;;21.70;99.90;;;;;;4973967;28;20711;-70
2023/08/17 00:36:01;;;;;;;3.58;1.83;;;21.70;99.90;;;;;;4974837;28;20034;-70
2023/08/17 00:38:27;;;;;;;5.22;2.17;;;21.60;99.90;;;;;;4987920;28;20133;-70
2023/08/17 00:40:54;;;;;;;6.10;2.05;;;21.70;99.90;;;;;;4988243;28;20806;-70
2023/08/17 00:43:20;;;;;;;3.55;2.03;;;21.70;99.90;;;;;;4992715;28;20862;-70
2023/08/17 00:45:48;;;;;;;2.83;1.83;;;21.70;99.90;;;;;;4994896;28;20775;-70
2023/08/17 00:48:15;;;;;;;4.53;1.77;;;21.70;99.90;;;;;;4986748;28;20048;-70
2023/08/17 00:50:41;;;;;;;4.82;1.83;;;21.70;99.90;;;;;;4979863;28;20065;-70
2023/08/17 00:53:13;;;;;;;5.07;2.15;;;21.80;99.90;;;;;;4992815;28;20166;-70
2023/08/17 00:55:39;;;;;;;3.90;1.63;;;21.80;99.90;;;;;;4992056;28;20046;-69
2023/08/17 00:58:05;;;;;;;1.80;1.52;;;21.80;99.90;;;;;;4973121;28;20030;-70
2023/08/17 01:00:31;;;;;;;5.32;2.03;;;21.70;99.90;;;;;;4988194;28;20031;-70
2023/08/17 01:02:57;;;;;;;4.25;1.63;;;21.70;99.90;;;;;;4977724;28;21148;-70
2023/08/17 01:05:23;;;;;;;4.43;1.63;;;21.70;99.90;;;;;;4986351;28;20035;-70
2023/08/17 01:07:49;;;;;;;3.50;1.90;;;21.70;99.90;;;;;;4983494;28;20030;-70
2023/08/17 01:10:17;;;;;;;3.50;1.60;;;21.70;99.90;;;;;;4965412;28;20462;-70
2023/08/17 01:12:46;;;;;;;5.68;2.10;;;21.70;99.90;;;;;;4952320;28;20491;-70
2023/08/17 01:15:27;;;;;;;3.03;1.75;;;21.70;99.90;;;;;;4968499;28;20095;-70
2023/08/17 01:18:28;;;;;;;3.95;1.77;;;21.70;99.90;;;;;;4998696;28;20100;-70
2023/08/17 01:20:55;;;;;;;3.85;1.70;;;21.70;99.90;;;;;;5001103;28;20537;-70
2023/08/17 01:23:22;;;;;;;3.33;1.88;;;21.70;99.90;;;;;;4991946;28;20034;-69
2023/08/17 01:25:48;;;;;;;3.35;1.63;;;21.60;99.90;;;;;;4976538;28;20520;-69
2023/08/17 01:28:15;;;;;;;4.35;1.80;;;21.60;99.90;;;;;;4955396;28;20042;-69
2023/08/17 01:30:47;;;;;;;3.65;2.03;;;21.60;99.90;;;;;;4984977;28;20038;-68
2023/08/17 01:33:23;;;;;;;3.55;2.10;;;21.60;99.90;;;;;;4991156;28;20054;-69
2023/08/17 01:36:01;;;;;;;4.40;1.90;;;21.60;99.90;;;;;;4980472;28;20030;-68
2023/08/17 01:38:29;;;;;;;2.58;1.50;;;21.50;99.90;;;;;;4972031;28;20042;-69
2023/08/17 01:40:56;;;;;;;3.53;1.95;;;21.50;99.90;;;;;;4988900;28;20030;-69
2023/08/17 01:43:22;;;;;;;4.97;2.45;;;21.50;99.90;;;;;;4984323;28;20049;-69
2023/08/17 01:45:48;;;;;;;2.90;1.88;;;21.50;99.90;;;;;;4975765;28;20038;-70
2023/08/17 01:48:14;;;;;;;1.80;1.70;;;21.50;99.90;;;;;;5000284;28;20565;-70
2023/08/17 01:50:40;;;;;;;4.00;1.77;;;21.50;99.90;;;;;;4986987;28;20037;-69
2023/08/17 01:53:06;;;;;;;3.78;1.95;;;21.40;99.90;;;;;;4992010;28;20040;-69
2023/08/17 01:55:32;;;;;;;2.70;1.65;;;21.40;99.90;;;;;;4977875;28;20041;-69
2023/08/17 01:57:58;;;;;;;4.10;1.58;;;21.40;99.90;;;;;;4979750;28;20030;-70
2023/08/17 02:00:24;;;;;;;2.95;1.80;;;21.40;99.90;;;;;;4978714;28;20117;-69
2023/08/17 02:02:49;;;;;;;6.38;1.90;;;21.30;99.90;;;;;;4998309;28;20895;-69
2023/08/17 02:05:15;;;;;;;4.25;2.28;;;21.30;99.90;;;;;;4982087;28;20060;-70
2023/08/17 02:07:42;;;;;;;3.47;1.90;;;21.40;99.90;;;;;;4997214;28;20030;-69
2023/08/17 02:10:08;;;;;;;4.78;1.83;;;21.40;99.90;;;;;;4975638;28;20081;-70
2023/08/17 02:12:34;;;;;;;4.22;1.83;;;21.40;99.90;;;;;;4987738;28;20073;-70
2023/08/17 02:15:00;;;;;;;2.60;2.13;;;21.30;99.90;;;;;;4983599;28;20069;-70
2023/08/17 02:17:25;;;;;;;9.55;2.33;;;21.30;99.90;;;;;;4978387;28;20038;-70
2023/08/17 02:19:51;;;;;;;4.07;1.85;;;21.20;99.90;;;;;;4977326;28;20032;-70
2023/08/17 02:22:17;;;;;;;3.80;1.80;;;21.30;99.90;;;;;;4969449;28;20033;-70
2023/08/17 02:24:43;;;;;;;4.97;2.03;;;21.30;99.90;;;;;;4973966;28;20073;-70
2023/08/17 02:27:09;;;;;;;6.32;1.90;;;21.20;99.90;;;;;;4983235;28;20038;-70
2023/08/17 02:29:35;;;;;;;6.93;1.95;;;21.20;99.90;;;;;;4978131;28;20092;-70
2023/08/17 02:32:01;;;;;;;7.60;2.20;;;21.20;99.90;;;;;;4992756;28;20050;-69
2023/08/17 02:34:27;;;;;;;4.97;2.25;;;21.20;99.90;;;;;;4996135;28;20041;-69
2023/08/17 02:36:52;;;;;;;2.58;2.00;;;21.10;99.90;;;;;;4997058;28;20026;-70
2023/08/17 02:39:18;;;;;;;3.97;1.80;;;21.10;99.90;;;;;;4992637;28;20026;-70
2023/08/17 02:41:44;;;;;;;4.95;2.10;;;21.10;99.90;;;;;;4998068;28;20030;-70
2023/08/17 02:44:11;;;;;;;2.45;2.08;;;21.10;99.90;;;;;;4983767;28;20038;-70
2023/08/17 02:46:36;;;;;;;3.75;1.75;;;21.10;99.90;;;;;;4998894;28;20041;-70
2023/08/17 02:49:02;;;;;;;4.03;1.80;;;21.10;99.90;;;;;;4972207;28;20033;-70
2023/08/17 02:51:28;;;;;;;4.35;1.90;;;21.00;99.90;;;;;;4990993;28;20031;-70
2023/08/17 02:53:54;;;;;;;3.08;2.10;;;21.00;99.90;;;;;;4988500;28;20137;-70
2023/08/17 02:56:19;;;;;;;5.25;1.75;;;21.00;99.90;;;;;;4983282;28;20027;-70
2023/08/17 02:58:47;;;;;;;7.28;1.95;;;21.00;99.90;;;;;;4969876;28;20034;-71
2023/08/17 03:01:12;;;;;;;9.35;1.92;;;21.00;99.90;;;;;;4977589;28;20403;-69
2023/08/17 03:03:38;;;;;;;3.55;1.48;;;20.90;99.90;;;;;;4995115;28;20076;-70
2023/08/17 03:06:05;;;;;;;4.90;2.20;;;20.90;99.90;;;;;;4997657;28;20022;-70
2023/08/17 03:08:31;;;;;;;3.10;1.88;;;21.00;99.90;;;;;;4989657;28;20041;-70
2023/08/17 03:10:56;;;;;;;3.00;1.63;;;20.90;99.90;;;;;;4974589;28;20641;-70
2023/08/17 03:13:22;;;;;;;4.80;1.60;;;20.90;99.90;;;;;;4966306;28;20614;-70
2023/08/17 03:15:48;;;;;;;6.07;2.38;;;20.90;99.90;;;;;;4977254;28;20042;-70
2023/08/17 03:18:15;;;;;;;6.63;2.00;;;20.90;99.90;;;;;;4977293;28;20034;-70
2023/08/17 03:20:40;;;;;;;5.30;2.03;;;20.90;99.90;;;;;;4994822;28;20034;-70
2023/08/17 03:23:07;;;;;;;4.43;2.00;;;20.90;99.90;;;;;;4979452;28;20037;-69
2023/08/17 03:25:34;;;;;;;6.72;1.77;;;20.90;99.90;;;;;;4989621;28;20039;-70
2023/08/17 03:28:00;;;;;;;3.85;2.00;;;20.80;99.90;;;;;;4976741;28;20034;-70
2023/08/17 03:30:26;;;;;;;4.03;1.70;;;20.80;99.90;;;;;;4978654;28;20037;-70
2023/08/17 03:32:52;;;;;;;4.00;1.80;;;20.80;99.90;;;;;;4995785;28;20037;-70
2023/08/17 03:35:18;;;;;;;6.22;1.70;;;20.80;99.90;;;;;;4963681;28;20045;-70
2023/08/17 03:37:45;;;;;;;2.60;1.77;;;20.80;99.90;;;;;;4970096;28;20092;-70
2023/08/17 03:40:11;;;;;;;3.53;1.90;;;20.80;99.90;;;;;;4959798;28;20200;-70
2023/08/17 03:42:37;;;;;;;2.13;1.70;;;20.80;99.90;;;;;;4979467;28;20557;-69
2023/08/17 03:45:04;;;;;;;5.82;1.80;;;20.80;99.90;;;;;;4980086;28;20041;-70
2023/08/17 03:47:29;;;;;;;5.05;2.13;;;20.80;99.90;;;;;;4979706;28;20052;-70
2023/08/17 03:49:55;;;;;;;4.45;2.03;;;20.80;99.90;;;;;;4978640;28;20031;-70
2023/08/17 03:52:21;;;;;;;7.72;2.13;;;20.70;99.90;;;;;;4969226;28;20819;-70
2023/08/17 03:54:47;;;;;;;3.85;1.83;;;20.80;99.90;;;;;;4979869;28;20034;-70
2023/08/17 03:57:13;;;;;;;5.50;1.80;;;20.80;99.90;;;;;;4995863;28;20049;-70
2023/08/17 03:59:39;;;;;;;7.95;2.38;;;20.80;99.90;;;;;;4991543;28;20109;-70
2023/08/17 04:02:05;;;;;;;1.88;1.55;;;20.80;99.90;;;;;;4979531;28;20498;-70
2023/08/17 04:04:32;;;;;;;3.80;1.80;;;20.80;99.90;;;;;;4975739;28;20942;-69
2023/08/17 04:06:58;;;;;;;2.30;1.65;;;20.80;99.90;;;;;;4972459;28;20685;-70
2023/08/17 04:09:23;;;;;;;4.00;1.92;;;20.70;99.90;;;;;;4985045;28;20034;-70
2023/08/17 04:11:49;;;;;;;4.30;1.83;;;20.70;99.90;;;;;;4975763;28;20064;-70
2023/08/17 04:14:15;;;;;;;5.70;2.05;;;20.80;99.90;;;;;;5000397;28;20487;-70
2023/08/17 04:16:41;;;;;;;5.82;2.92;;;20.80;99.90;;;;;;5001292;28;20108;-70
2023/08/17 04:19:07;;;;;;;4.28;1.52;;;20.80;99.90;;;;;;4972405;28;20065;-70
2023/08/17 04:21:34;;;;;;;3.58;1.70;;;20.80;99.90;;;;;;4979414;28;20100;-70
2023/08/17 04:24:00;;;;;;;3.30;1.73;;;20.80;99.90;;;;;;4975410;28;20033;-70
2023/08/17 04:26:26;;;;;;;4.10;1.92;;;20.90;99.90;;;;;;4968038;28;20136;-70
2023/08/17 04:28:51;;;;;;;2.80;1.70;;;20.90;99.90;;;;;;4977893;28;20053;-69
2023/08/17 04:31:17;;;;;;;3.03;1.73;;;20.90;99.90;;;;;;4979517;28;20060;-70
2023/08/17 04:33:45;;;;;;;3.80;1.67;;;20.90;99.90;;;;;;4970136;28;20852;-70
2023/08/17 04:36:12;;;;;;;3.55;1.80;;;21.00;99.90;;;;;;4978782;28;20042;-70
2023/08/17 04:38:38;;;;;;;4.93;2.00;;;21.10;99.90;;;;;;4979089;28;20405;-70
2023/08/17 04:41:05;;;;;;;4.13;1.58;;;21.10;99.90;;;;;;4961701;28;20034;-70
2023/08/17 04:43:31;;;;;;;3.65;1.63;;;21.10;99.90;;;;;;4985770;28;20108;-70
2023/08/17 04:45:57;;;;;;;3.78;1.60;;;21.20;99.90;;;;;;4982948;28;20042;-70
2023/08/17 04:48:23;;;;;;;3.20;1.90;;;21.20;99.90;;;;;;4968857;28;20041;-70
2023/08/17 04:50:51;;;;;;;3.63;1.65;;;21.10;99.90;;;;;;4993820;28;20033;-70
2023/08/17 04:53:16;;;;;;;6.63;1.65;;;21.20;99.90;;;;;;4971745;28;20120;-70
2023/08/17 04:55:42;;;;;;;3.10;1.50;;;21.20;99.90;;;;;;4980082;28;20463;-70
2023/08/17 04:58:08;;;;;;;3.65;1.80;;;21.20;99.90;;;;;;4972200;28;20037;-69
2023/08/17 05:00:34;;;;;;;4.32;1.67;;;21.20;99.90;;;;;;4978896;28;20117;-70
2023/08/17 05:02:59;;;;;;;4.32;1.90;;;21.20;99.90;;;;;;4975692;28;20479;-70
2023/08/17 05:05:31;;;;;;;2.67;1.50;;;21.30;99.90;;;;;;4974778;28;20059;-69
2023/08/17 05:07:57;;;;;;;4.68;1.75;;;21.30;99.90;;;;;;4970365;28;20035;-70
2023/08/17 05:10:23;;;;;;;5.00;2.15;;;21.30;99.90;;;;;;4979164;28;20061;-70
2023/08/17 05:12:48;;;;;;;1.83;1.60;;;21.30;99.90;;;;;;4978452;28;20037;-70
2023/08/17 05:15:14;;;;;;;2.60;1.40;;;21.30;99.90;;;;;;4976071;28;20077;-70
2023/08/17 05:17:40;;;;;;;4.15;1.77;;;21.40;99.90;;;;;;4983602;28;20038;-70
2023/08/17 05:20:08;;;;;;;6.00;1.85;;;21.40;99.90;;;;;;4984319;28;20080;-70
2023/08/17 05:22:34;;;;;;;4.40;1.60;;;21.50;99.90;;;;;;4979429;28;20041;-69
2023/08/17 05:25:00;;;;;;;4.88;2.08;;;21.50;99.90;;;;;;4996011;28;20026;-69
2023/08/17 05:27:26;;;;;;;5.32;1.73;;;21.40;99.90;;;;;;4978887;28;20041;-70
2023/08/17 05:29:52;;;;;;;3.70;1.80;;;21.40;99.90;;;;;;4970977;28;20057;-70
2023/08/17 05:32:18;;;;;;;2.97;1.58;;;21.30;99.90;;;;;;4974953;28;20030;-70
2023/08/17 05:34:47;;;;;;;1.65;1.48;;;21.30;99.90;;;;;;4975180;28;20034;-70
2023/08/17 05:37:13;;;;;;;3.85;1.88;;;21.30;99.90;;;;;;4973567;28;20026;-70
2023/08/17 05:39:40;;;;;;;5.90;2.08;;;21.40;99.90;;;;;;4986494;28;20034;-70
2023/08/17 05:42:07;;;;;;;3.63;2.05;;;21.40;99.90;;;;;;4993029;28;20026;-70
2023/08/17 05:44:33;;;;;;;4.43;2.08;;;21.40;99.90;;;;;;4982207;28;20037;-70
2023/08/17 05:46:59;;;;;;;2.90;1.67;;;21.40;99.90;;;;;;4970282;28;20042;-70
2023/08/17 05:49:25;;;;;;;2.08;1.75;;;21.30;99.90;;;;;;4972027;28;20034;-68
2023/08/17 05:51:51;;;;;;;7.22;2.10;;;21.30;99.90;;;;;;4998756;28;20053;-70
2023/08/17 05:54:16;;;;;;;3.88;1.75;;;21.30;99.90;;;;;;4989738;28;20041;-70
2023/08/17 05:56:46;;;;;;;3.47;2.10;;;21.30;99.90;;;;;;4980122;28;20042;-70
2023/08/17 05:59:12;;;;;;;4.18;2.03;;;21.30;99.90;;;;;;4996067;28;20081;-70
2023/08/17 06:01:38;;;;;;;4.50;1.73;;;21.30;99.90;;;;;;5001353;28;20125;-69
2023/08/17 06:04:04;;;;;;;2.60;1.73;;;21.30;99.90;;;;;;4987676;28;20042;-69
2023/08/17 06:06:30;;;;;;;2.13;1.92;;;21.20;99.90;;;;;;4988678;28;20453;-70
2023/08/17 06:08:56;;;;;;;6.72;2.10;;;21.30;99.90;;;;;;4998781;28;20033;-69
2023/08/17 06:11:23;;;;;;;5.07;1.92;;;21.30;99.90;;;;;;5000050;28;20506;-70
2023/08/17 06:13:48;;;;;;;5.20;2.20;;;21.30;99.90;;;;;;4981908;28;20087;-70
2023/08/17 06:16:14;;;;;;;7.80;2.42;;;21.20;99.90;;;;;;4998399;28;20524;-70
2023/08/17 06:18:40;;;;;;;4.72;2.15;;;21.20;99.90;;;;;;4994360;28;20030;-71
2023/08/17 06:21:06;;;;;;;5.40;2.50;;;21.00;99.90;;;;;;4993724;28;20034;-71
2023/08/17 06:23:32;;;;;;;7.50;2.85;;;20.90;99.90;;;;;;5001545;28;20827;-71
2023/08/17 06:25:58;;;;;;;4.15;2.72;;;20.80;99.90;;;;;;4985089;28;20038;-71
2023/08/17 06:28:25;;;;;;;3.92;2.58;;;20.60;99.90;;;;;;4999498;28;20041;-71
2023/08/17 06:30:55;;;;;;;3.90;2.67;;;20.60;99.90;;;;;;4992006;28;20078;-71
2023/08/17 06:33:22;;;;;;;5.15;2.88;;;20.50;99.90;;;;;;4991720;28;20039;-71
2023/08/17 06:35:49;;;;;;;4.32;2.60;;;20.40;99.90;;;;;;4986410;28;20121;-71
2023/08/17 06:38:14;;;;;;;5.15;3.03;;;20.40;99.90;;;;;;4997389;28;20027;-71
2023/08/17 06:40:40;;;;;;;5.05;3.08;;;20.30;99.90;;;;;;4990173;28;20039;-71
2023/08/17 06:43:06;;;;;;;4.95;2.67;;;20.30;99.90;;;;;;4973340;28;20471;-71
2023/08/17 06:45:32;;;;;;;7.07;3.70;;;20.30;99.90;;;;;;4974433;28;20038;-71
2023/08/17 06:47:58;;;;;;;6.05;2.97;;;20.20;99.90;;;;;;4988970;28;20057;-71
2023/08/17 06:50:26;;;;;;;7.22;3.33;;;20.20;99.90;;;;;;4989602;28;20489;-71
2023/08/17 06:52:52;;;;;;;6.07;3.20;;;20.20;99.90;;;;;;4992785;28;20165;-71
2023/08/17 06:55:18;;;;;;;6.55;3.42;;;20.20;99.90;;;;;;4972525;28;20054;-70
2023/08/17 06:57:44;;;;;;;5.85;3.38;;;20.20;99.90;;;;;;4993687;28;20029;-71
2023/08/17 07:00:13;;;;;;;5.35;3.13;;;20.20;99.90;;;;;;4992485;28;20031;-71
2023/08/17 07:02:39;;;;;;;6.60;3.40;;;20.20;99.90;;;;;;4993707;28;20696;-71
2023/08/17 07:05:05;;;;;;;8.30;3.67;;;20.20;99.90;;;;;;4995893;28;20036;-71
2023/08/17 07:07:31;;;;;;;4.57;3.08;;;20.20;99.90;;;;;;4987835;28;20046;-71
2023/08/17 07:09:57;;;;;;;5.40;3.50;;;20.20;99.90;;;;;;4993562;28;20035;-71
2023/08/17 07:12:24;;;;;;;5.30;3.55;;;20.30;99.90;;;;;;5000296;28;20096;-71
2023/08/17 07:14:50;;;;;;;6.90;3.63;;;20.30;99.90;;;;;;4984578;28;20113;-71
2023/08/17 07:17:16;;;;;;;6.65;3.40;;;20.30;99.90;;;;;;4992399;28;20030;-71
2023/08/17 07:19:42;;;;;;;5.13;3.10;;;20.30;99.90;;;;;;4991083;28;20061;-71
2023/08/17 07:22:07;;;;;;;7.82;4.13;;;20.40;99.90;;;;;;4991898;28;20136;-71
2023/08/17 07:24:33;;;;;;;4.90;3.45;;;20.40;99.90;;;;;;4987580;28;20133;-71
2023/08/17 07:26:59;;;;;;;4.50;3.63;;;20.40;99.90;;;;;;4993705;28;20037;-71
2023/08/17 07:29:25;;;;;;;5.65;3.53;;;20.40;99.90;;;;;;5001712;28;20827;-71
2023/08/17 07:31:51;;;;;;;5.32;3.60;;;20.40;99.90;;;;;;4994633;28;20037;-71
2023/08/17 07:34:16;;;;;;;7.10;3.95;;;20.40;99.90;;;;;;4994871;28;20409;-71
2023/08/17 07:36:42;;;;;;;7.18;4.10;;;20.40;99.90;;;;;;4999801;28;20061;-71
2023/08/17 07:39:08;;;;;;;7.95;3.58;;;20.40;99.90;;;;;;4996729;28;20026;-71
2023/08/17 07:41:34;;;;;;;3.97;3.22;;;20.30;99.90;;;;;;4984371;28;20042;-71
2023/08/17 07:43:59;;;;;;;4.53;3.17;;;20.40;99.90;;;;;;4977254;28;20037;-71
2023/08/17 07:46:25;;;;;;;4.22;3.15;;;20.40;99.90;;;;;;5001536;28;20061;-71
2023/08/17 07:48:51;;;;;;;7.82;3.95;;;20.50;99.90;;;;;;4978453;28;20044;-71
2023/08/17 07:51:17;;;;;;;7.57;3.65;;;20.50;99.90;;;;;;4995173;28;20042;-71
2023/08/17 07:53:42;;;;;;;6.55;3.10;;;20.40;99.90;;;;;;4990905;28;20042;-71
2023/08/17 07:56:08;;;;;;;5.25;3.63;;;20.40;99.90;;;;;;4997851;28;20038;-70
2023/08/17 07:58:34;;;;;;;7.82;3.72;;;20.40;99.90;;;;;;4991299;28;20482;-70
2023/08/17 08:01:00;;;;;;;8.48;4.30;;;20.40;99.90;;;;;;4997384;28;20067;-70
2023/08/17 08:03:26;;;;;;;5.88;4.20;;;20.40;99.90;;;;;;4993465;28;20557;-70
2023/08/17 08:05:52;;;;;;;5.63;3.92;;;20.40;99.90;;;;;;4995481;28;20038;-70
2023/08/17 08:08:19;;;;;;;11.00;4.57;;;20.40;99.90;;;;;;4992377;28;20037;-70
2023/08/17 08:10:45;;;;;;;5.45;4.30;;;20.40;99.90;;;;;;4996450;28;20084;-70
2023/08/17 08:13:11;;;;;;;6.88;4.20;;;20.40;99.90;;;;;;4996482;28;20116;-69
2023/08/17 08:15:37;;;;;;;8.13;4.15;;;20.40;99.90;;;;;;4997167;28;20030;-70
2023/08/17 08:18:03;;;;;;;7.30;4.25;;;20.50;99.90;;;;;;4993292;28;20044;-70
2023/08/17 08:20:29;;;;;;;5.20;3.60;;;20.60;99.90;;;;;;4986407;28;20034;-70
2023/08/17 08:22:54;;;;;;;4.45;3.60;;;20.80;99.90;;;;;;4988796;28;20483;-70
2023/08/17 08:25:20;;;;;;;4.55;3.72;;;20.90;99.90;;;;;;4990612;28;20048;-70
2023/08/17 08:27:46;;;;;;;5.57;3.50;;;21.10;99.90;;;;;;4996307;28;20500;-69
2023/08/17 08:30:12;;;;;;;6.50;4.10;;;21.10;99.90;;;;;;4993542;28;20042;-70
2023/08/17 08:32:38;;;;;;;4.90;3.42;;;21.30;99.90;;;;;;4998927;28;20069;-70
2023/08/17 08:35:04;;;;;;;5.07;3.80;;;21.40;99.90;;;;;;4988115;28;20088;-70
2023/08/17 08:37:30;;;;;;;9.60;3.65;;;21.60;99.90;;;;;;4990075;28;20105;-70
2023/08/17 08:39:56;;;;;;;5.88;3.20;;;21.70;99.90;;;;;;4986700;28;20102;-70
2023/08/17 08:42:25;;;;;;;6.43;3.10;;;21.80;99.90;;;;;;4987825;28;20064;-70
2023/08/17 08:44:51;;;;;;;3.75;2.75;;;22.00;99.90;;;;;;4996341;28;20101;-70
2023/08/17 08:47:17;;;;;;;8.90;3.30;;;22.10;99.90;;;;;;4985399;28;20132;-70
2023/08/17 08:49:54;;;;;;;4.78;3.10;;;22.10;99.90;;;;;;4994458;28;20142;-70
2023/08/17 08:52:26;;;;;;;5.00;4.05;;;22.10;99.90;;;;;;4981796;28;20034;-70
2023/08/17 08:54:57;;;;;;;5.57;2.90;;;22.30;99.90;;;;;;4993944;28;20774;-70
2023/08/17 08:57:23;;;;;;;3.90;2.72;;;22.40;99.90;;;;;;4985168;28;20045;-70
2023/08/17 08:59:49;;;;;;;10.32;3.17;;;22.50;99.90;;;;;;4992253;28;20065;-70
2023/08/17 09:02:16;;;;;;;3.55;3.08;;;22.50;99.90;;;;;;4993596;28;20066;-70
2023/08/17 09:04:45;;;;;;;3.28;2.65;;;22.60;99.90;;;;;;4991028;28;20051;-70
2023/08/17 09:07:16;;;;;;;7.75;3.53;;;22.70;99.90;;;;;;4990358;28;20035;-70
2023/08/17 09:09:45;;;;;;;8.75;3.38;;;22.70;99.90;;;;;;4983393;28;20046;-70
2023/08/17 09:12:11;;;;;;;3.72;3.30;;;22.70;99.90;;;;;;4989230;28;20038;-70
2023/08/17 09:14:40;;;;;;;5.90;3.20;;;22.70;99.90;;;;;;4993399;28;20038;-70
2023/08/17 09:17:07;;;;;;;5.30;3.17;;;22.80;99.90;;;;;;4990450;28;20482;-70
2023/08/17 09:19:33;;;;;;;6.45;3.28;;;22.90;99.90;;;;;;4997024;28;20072;-70
2023/08/17 09:22:00;;;;;;;4.57;2.92;;;23.10;99.90;;;;;;4989709;28;20031;-70
2023/08/17 09:24:39;;;;;;;7.60;2.88;;;23.20;99.90;;;;;;4977384;28;20038;-70
2023/08/17 09:27:05;;;;;;;4.30;3.05;;;23.30;99.90;;;;;;4970561;28;20038;-70
2023/08/17 09:29:36;;;;;;;3.75;2.72;;;23.40;99.90;;;;;;4989106;28;20396;-70
2023/08/17 09:32:07;;;;;;;6.32;2.95;;;23.50;99.90;;;;;;4996495;28;20041;-70
2023/08/17 09:34:33;;;;;;;6.82;2.65;;;23.70;99.90;;;;;;4997650;28;20450;-70
2023/08/17 09:37:05;;;;;;;8.13;2.97;;;23.70;99.90;;;;;;4987031;28;20528;-70
2023/08/17 09:39:31;;;;;;;4.15;2.58;;;23.70;99.90;;;;;;4980840;28;20022;-69
2023/08/17 09:41:58;;;;;;;4.43;2.60;;;23.80;99.90;;;;;;4983868;28;20045;-69
2023/08/17 09:44:24;;;;;;;3.97;2.25;;;23.90;99.90;;;;;;4994638;28;20045;-69
2023/08/17 09:46:50;;;;;;;5.22;2.67;;;24.00;99.90;;;;;;5006428;28;20050;-68
2023/08/17 09:49:18;;;;;;;4.93;2.90;;;24.20;99.90;;;;;;5000440;28;20030;-69
2023/08/17 09:51:44;;;;;;;5.03;2.90;;;24.30;99.90;;;;;;4993795;28;20026;-69
2023/08/17 09:54:24;;;;;;;4.00;2.83;;;24.50;99.90;;;;;;4996294;28;20040;-69
2023/08/17 09:56:53;;;;;;;3.95;2.80;;;24.60;99.90;;;;;;4990806;28;20121;-69
2023/08/17 09:59:20;;;;;;;6.35;2.67;;;24.70;99.90;;;;;;4995411;28;20125;-70
2023/08/17 10:01:50;;;;;;;3.90;3.03;;;24.70;99.90;;;;;;4993061;28;20034;-70
2023/08/17 10:04:22;;;;;;;5.93;3.25;;;24.80;99.90;;;;;;4993930;28;20121;-70
2023/08/17 10:06:52;;;;;;;4.85;3.25;;;24.80;99.90;;;;;;4996693;28;20038;-70
2023/08/17 10:09:25;;;;;;;4.97;3.20;;;25.00;99.90;;;;;;4996669;28;20035;-70
2023/08/17 10:11:54;;;;;;;4.45;3.00;;;25.00;99.90;;;;;;5003148;28;20397;-70
2023/08/17 10:14:28;;;;;;;8.05;3.42;;;25.10;99.90;;;;;;5000222;28;20041;-70
2023/08/17 10:17:00;;;;;;;2.83;2.30;;;25.30;99.90;;;;;;4996736;28;20064;-70
2023/08/17 10:19:41;;;;;;;7.72;3.20;;;25.40;99.90;;;;;;4983691;28;20026;-69
2023/08/17 10:22:15;;;;;;;5.85;3.10;;;25.50;99.90;;;;;;4992060;28;20033;-70
2023/08/17 10:24:41;;;;;;;4.30;3.13;;;25.50;99.90;;;;;;4978662;28;20119;-69
2023/08/17 10:27:08;;;;;;;5.78;2.88;;;25.50;99.90;;;;;;4984601;28;20040;-68
2023/08/17 10:29:36;;;;;;;4.55;3.20;;;25.50;99.90;;;;;;4994640;28;20045;-68
2023/08/17 10:32:02;;;;;;;6.07;3.47;;;25.60;99.90;;;;;;4981529;28;20494;-69
2023/08/17 10:34:29;;;;;;;6.45;3.13;;;25.60;99.90;;;;;;5000659;28;20034;-67
2023/08/17 10:36:57;;;;;;;4.13;3.03;;;25.70;99.90;;;;;;5003720;28;20022;-69
2023/08/17 10:39:28;;;;;;;5.60;3.78;;;25.70;99.90;;;;;;4999286;28;20030;-68
2023/08/17 10:41:55;;;;;;;5.72;3.63;;;25.80;99.90;;;;;;4996309;28;20098;-69
2023/08/17 10:44:44;;;;;;;6.88;4.15;;;25.80;99.90;;;;;;4993426;28;20570;-69
2023/08/17 10:47:28;;;;;;;4.13;3.67;;;25.90;99.90;;;;;;4991693;28;20110;-70
2023/08/17 10:50:21;;;;;;;9.90;4.93;;;25.90;99.90;;;;;;4994876;28;20060;-70
2023/08/17 10:52:49;;;;;;;6.15;3.97;;;25.90;99.90;;;;;;4987260;28;20830;-70
2023/08/17 10:55:15;;;;;;;8.25;3.85;;;25.90;99.90;;;;;;4998582;28;20042;-70
2023/08/17 10:57:42;;;;;;;4.15;3.50;;;25.80;99.90;;;;;;4983052;28;20045;-69
2023/08/17 11:00:26;;;;;;;4.13;3.50;;;25.80;99.90;;;;;;4998939;28;20050;-70
2023/08/17 11:03:03;;;;;;;7.82;4.00;;;25.90;99.90;;;;;;4979285;28;20061;-69
2023/08/17 11:05:43;;;;;;;10.02;4.35;;;26.00;99.90;;;;;;4994600;28;20136;-68
2023/08/17 11:08:23;;;;;;;5.68;3.55;;;25.90;99.90;;;;;;4991021;28;20038;-70
2023/08/17 11:11:01;;;;;;;6.45;3.67;;;25.90;99.90;;;;;;4997002;28;20108;-69
2023/08/17 11:13:32;;;;;;;6.65;3.97;;;25.90;99.90;;;;;;4991038;28;20050;-69
2023/08/17 11:15:59;;;;;;;7.43;3.72;;;26.00;99.90;;;;;;4994661;28;20045;-70
2023/08/17 11:18:25;;;;;;;5.88;3.75;;;26.00;99.90;;;;;;4994761;28;20034;-69
2023/08/17 11:20:52;;;;;;;3.90;3.50;;;25.90;99.90;;;;;;4996176;28;20853;-70
2023/08/17 11:23:18;;;;;;;4.95;3.67;;;25.90;99.90;;;;;;4992628;28;20056;-70
2023/08/17 11:25:44;;;;;;;6.82;3.47;;;25.90;99.90;;;;;;5003110;28;20542;-70
2023/08/17 11:28:10;;;;;;;4.95;3.60;;;26.00;99.90;;;;;;4984930;28;20053;-70
2023/08/17 11:30:38;;;;;;;4.32;3.05;;;25.90;99.90;;;;;;5002860;28;20030;-70
2023/08/17 11:33:05;;;;;;;3.70;3.30;;;25.90;99.90;;;;;;4966916;28;20137;-70
2023/08/17 11:35:31;;;;;;;4.18;3.45;;;25.80;99.90;;;;;;4972914;28;20038;-68
2023/08/17 11:37:57;;;;;;;5.07;3.20;;;25.70;99.90;;;;;;5002919;28;20026;-70
2023/08/17 11:40:24;;;;;;;5.93;3.03;;;25.70;99.90;;;;;;4998338;28;20394;-70
2023/08/17 11:42:50;;;;;;;6.65;3.47;;;25.60;99.90;;;;;;4989360;28;20030;-70
2023/08/17 11:45:16;;;;;;;3.67;3.17;;;25.60;99.90;;;;;;4991164;28;20517;-70
2023/08/17 11:47:43;;;;;;;7.78;3.90;;;25.70;99.90;;;;;;4994208;28;20034;-70
2023/08/17 11:50:14;;;;;;;5.20;3.55;;;25.80;99.90;;;;;;5002096;28;20034;-68
2023/08/17 11:52:40;;;;;;;4.75;3.58;;;25.80;99.90;;;;;;4994876;28;20034;-70
2023/08/17 11:55:09;;;;;;;5.97;3.17;;;26.00;99.90;;;;;;5000999;28;20103;-69
2023/08/17 11:57:36;;;;;;;7.90;3.10;;;26.10;99.90;;;;;;4985028;28;20058;-69
2023/08/17 12:00:06;;;;;;;3.40;3.10;;;26.20;99.90;;;;;;4991535;28;20099;-69
2023/08/17 12:02:34;;;;;;;3.95;3.20;;;26.10;99.90;;;;;;4992969;28;20038;-70
2023/08/17 12:05:06;;;;;;;4.85;3.10;;;26.00;99.90;;;;;;4997120;28;20091;-69
2023/08/17 12:07:32;;;;;;;5.55;3.17;;;26.00;99.90;;;;;;4995732;28;20120;-69
2023/08/17 12:09:58;;;;;;;5.20;3.10;;;26.00;99.90;;;;;;4989405;28;20033;-69
2023/08/17 12:12:24;;;;;;;5.88;3.45;;;26.00;99.90;;;;;;5004534;28;20042;-70
2023/08/17 12:14:50;;;;;;;6.60;3.28;;;25.90;99.90;;;;;;4987093;28;20096;-69
2023/08/17 12:17:17;;;;;;;5.05;3.45;;;25.90;99.90;;;;;;4988526;28;20154;-67
2023/08/17 12:19:43;;;;;;;6.90;3.35;;;25.90;99.90;;;;;;4984983;28;20030;-69
2023/08/17 12:22:09;;;;;;;6.47;3.33;;;25.80;99.90;;;;;;4994350;28;20030;-69
2023/08/17 12:24:36;;;;;;;5.85;3.50;;;25.80;99.90;;;;;;4987342;28;20031;-70
2023/08/17 12:27:06;;;;;;;5.55;3.60;;;25.90;99.90;;;;;;4993858;28;20494;-70
2023/08/17 12:29:31;;;;;;;4.82;3.38;;;26.00;99.90;;;;;;4975463;28;20088;-70
2023/08/17 12:31:58;;;;;;;4.40;3.60;;;26.30;99.90;;;;;;4994073;28;20483;-68
2023/08/17 12:34:24;;;;;;;6.30;3.78;;;26.50;99.90;;;;;;4983099;28;20483;-71
2023/08/17 12:36:50;;;;;;;5.20;3.30;;;26.60;99.90;;;;;;4991172;28;20066;-69
2023/08/17 12:39:16;;;;;;;5.85;3.10;;;26.70;99.90;;;;;;4982254;28;20101;-69
2023/08/17 12:41:42;;;;;;;6.28;3.80;;;26.80;99.90;;;;;;4987100;28;20060;-69
2023/08/17 12:44:14;;;;;;;4.28;2.88;;;26.80;99.90;;;;;;4989164;28;20022;-70
2023/08/17 12:46:42;;;;;;;5.68;3.17;;;26.70;99.90;;;;;;4988610;28;20045;-69